Time;durP1;ratioP1;P1;durP2;ratioP2;P2;SDS_P1;SDS_P2;PMS_P1;PMS_P2;Temp;Humidity;BMP_temperature;BMP_pressure;BME280_temperature;BME280_humidity;BME280_pressure;Samples;Min_cycle;Max_cycle;Signal;HPM_P1;HPM_P2
2021/01/08 00:00:44;;;;;;;;;;;19.50;56.70;;;;;;4994123;28;1333;-66
2021/01/08 00:03:09;;;;;;;;;;;19.50;56.80;;;;;;4994238;28;1335;-66
2021/01/08 00:05:35;;;;;;;;;;;19.50;56.80;;;;;;4993989;28;1280;-66
2021/01/08 00:08:00;;;;;;;;;;;19.50;56.80;;;;;;4993754;28;950;-66
2021/01/08 00:10:29;;;;;;;;;;;19.50;56.80;;;;;;4993916;28;1386;-66
2021/01/08 00:12:54;;;;;;;;;;;19.50;56.80;;;;;;5000340;28;1193;-66
2021/01/08 00:15:19;;;;;;;;;;;19.50;56.80;;;;;;4993926;28;1898;-66
2021/01/08 00:17:45;;;;;;;;;;;19.50;56.80;;;;;;4993824;28;1245;-66
2021/01/08 00:20:10;;;;;;;;;;;19.50;56.80;;;;;;4993769;28;1323;-66
2021/01/08 00:22:36;;;;;;;;;;;19.50;56.80;;;;;;4993927;28;1268;-66
2021/01/08 00:25:02;;;;;;;;;;;19.50;56.80;;;;;;4993547;28;1383;-67
2021/01/08 00:27:27;;;;;;;;;;;19.50;56.90;;;;;;4992403;28;1065;-66
2021/01/08 00:29:52;;;;;;;;;;;19.50;56.90;;;;;;5038638;23;2784;-67
2021/01/08 00:32:18;;;;;;;;;;;19.50;56.90;;;;;;5054045;28;2211;-68
2021/01/08 00:34:44;;;;;;;;;;;19.50;56.90;;;;;;5045339;28;1967;-68
2021/01/08 00:37:09;;;;;;;;;;;19.50;56.90;;;;;;5025271;28;1672;-68
2021/01/08 00:39:36;;;;;;;;;;;19.40;56.80;;;;;;5040869;28;1686;-68
2021/01/08 00:42:02;;;;;;;;;;;19.40;56.90;;;;;;5012406;28;1450;-68
2021/01/08 00:44:27;;;;;;;;;;;19.40;56.90;;;;;;5012126;28;1171;-68
2021/01/08 00:46:52;;;;;;;;;;;19.40;56.90;;;;;;5012248;28;1359;-68
2021/01/08 00:49:18;;;;;;;;;;;19.40;56.90;;;;;;5012645;28;1355;-66
2021/01/08 00:51:44;;;;;;;;;;;19.40;56.90;;;;;;5024355;28;1169;-66
2021/01/08 00:54:09;;;;;;;;;;;19.40;56.90;;;;;;5032397;28;1959;-68
2021/01/08 00:56:35;;;;;;;;;;;19.40;56.90;;;;;;5030375;28;1370;-68
2021/01/08 00:59:00;;;;;;;;;;;19.40;56.90;;;;;;5019697;28;1444;-68
2021/01/08 01:01:26;;;;;;;;;;;19.40;56.90;;;;;;5031883;28;1684;-68
2021/01/08 01:03:51;;;;;;;;;;;19.40;56.90;;;;;;5031743;28;1653;-69
2021/01/08 01:06:26;;;;;;;;;;;19.40;56.90;;;;;;5030530;28;1129;-68
2021/01/08 01:08:52;;;;;;;;;;;19.40;57.00;;;;;;5030318;28;1707;-67
2021/01/08 01:11:18;;;;;;;;;;;19.40;57.00;;;;;;5014013;28;1386;-68
2021/01/08 01:13:44;;;;;;;;;;;19.40;57.00;;;;;;5027698;28;1510;-68
2021/01/08 01:16:10;;;;;;;;;;;19.40;57.00;;;;;;5030020;28;1949;-68
2021/01/08 01:18:35;;;;;;;;;;;19.40;57.00;;;;;;5032122;28;1636;-67
2021/01/08 01:21:01;;;;;;;;;;;19.40;57.00;;;;;;5030147;28;1680;-67
2021/01/08 01:23:26;;;;;;;;;;;19.40;57.00;;;;;;5031154;28;1354;-67
2021/01/08 01:25:52;;;;;;;;;;;19.40;57.00;;;;;;5031076;28;1264;-68
2021/01/08 01:28:17;;;;;;;;;;;19.40;57.10;;;;;;5031803;28;1423;-67
2021/01/08 01:30:43;;;;;;;;;;;19.40;57.10;;;;;;5043999;28;1637;-67
2021/01/08 01:33:08;;;;;;;;;;;19.40;57.10;;;;;;5051728;28;1085;-66
2021/01/08 01:35:34;;;;;;;;;;;19.40;57.10;;;;;;5051041;28;1905;-67
2021/01/08 01:37:59;;;;;;;;;;;19.40;57.10;;;;;;5041018;28;1439;-68
2021/01/08 01:40:25;;;;;;;;;;;19.40;57.10;;;;;;5050899;28;1461;-68
2021/01/08 01:42:50;;;;;;;;;;;19.40;57.10;;;;;;5051444;28;1323;-69
2021/01/08 01:45:15;;;;;;;;;;;19.30;57.00;;;;;;5032370;28;1117;-68
2021/01/08 01:47:41;;;;;;;;;;;19.30;57.00;;;;;;5032972;28;1462;-68
2021/01/08 01:50:07;;;;;;;;;;;19.30;57.00;;;;;;5051446;28;1343;-68
2021/01/08 01:52:33;;;;;;;;;;;19.30;57.00;;;;;;5033855;28;1688;-69
2021/01/08 01:54:58;;;;;;;;;;;19.30;57.00;;;;;;5032319;28;1910;-69
2021/01/08 01:57:24;;;;;;;;;;;19.30;57.10;;;;;;5036261;28;2283;-69
2021/01/08 01:59:49;;;;;;;;;;;19.30;57.00;;;;;;5051316;28;1636;-68
2021/01/08 02:02:30;;;;;;;;;;;19.30;57.10;;;;;;5051368;28;1184;-69
2021/01/08 02:04:56;;;;;;;;;;;19.30;57.10;;;;;;5050648;28;1663;-68
2021/01/08 02:07:21;;;;;;;;;;;19.30;57.10;;;;;;5033092;28;1676;-68
2021/01/08 02:09:47;;;;;;;;;;;19.30;57.10;;;;;;5050854;28;1362;-68
2021/01/08 02:12:12;;;;;;;;;;;19.30;57.10;;;;;;5033287;28;1426;-69
2021/01/08 02:14:39;;;;;;;;;;;19.30;57.10;;;;;;5029599;28;1914;-69
2021/01/08 02:17:05;;;;;;;;;;;19.30;57.10;;;;;;5033097;28;1304;-69
2021/01/08 02:19:34;;;;;;;;;;;19.30;57.10;;;;;;5033368;28;1627;-69
2021/01/08 02:22:03;;;;;;;;;;;19.30;57.10;;;;;;5033419;28;1432;-69
2021/01/08 02:24:33;;;;;;;;;;;19.30;57.10;;;;;;5033436;28;1396;-68
2021/01/08 02:26:58;;;;;;;;;;;19.30;57.10;;;;;;5033224;28;1379;-69
2021/01/08 02:29:24;;;;;;;;;;;19.30;57.10;;;;;;5032933;28;1774;-69
2021/01/08 02:31:49;;;;;;;;;;;19.30;57.10;;;;;;5033379;28;1400;-68
2021/01/08 02:34:15;;;;;;;;;;;19.30;57.10;;;;;;5032037;28;1965;-68
2021/01/08 02:36:41;;;;;;;;;;;19.30;57.10;;;;;;5043361;28;1365;-68
2021/01/08 02:39:07;;;;;;;;;;;19.30;57.10;;;;;;5028594;28;1656;-69
2021/01/08 02:41:33;;;;;;;;;;;19.30;57.10;;;;;;5032895;28;1386;-69
2021/01/08 02:43:58;;;;;;;;;;;19.30;57.10;;;;;;5050247;28;1360;-69
2021/01/08 02:46:24;;;;;;;;;;;19.30;57.10;;;;;;5032218;28;1693;-69
2021/01/08 02:48:49;;;;;;;;;;;19.20;57.10;;;;;;5050979;28;1381;-69
2021/01/08 02:51:15;;;;;;;;;;;19.30;57.10;;;;;;5059955;28;1342;-69
2021/01/08 02:53:40;;;;;;;;;;;19.30;57.20;;;;;;5035638;28;1592;-69
2021/01/08 02:56:17;;;;;;;;;;;19.30;57.20;;;;;;5032294;28;1902;-67
2021/01/08 02:58:42;;;;;;;;;;;19.20;57.20;;;;;;5022358;28;1353;-69
2021/01/08 03:01:08;;;;;;;;;;;19.20;57.10;;;;;;5036449;28;1591;-67
2021/01/08 03:03:33;;;;;;;;;;;19.30;57.20;;;;;;5053358;28;1415;-69
2021/01/08 03:05:59;;;;;;;;;;;19.20;57.10;;;;;;5019382;28;1622;-69
2021/01/08 03:08:25;;;;;;;;;;;19.20;57.10;;;;;;5053247;28;1644;-69
2021/01/08 03:10:50;;;;;;;;;;;19.20;57.20;;;;;;5036222;28;1618;-68
2021/01/08 03:13:16;;;;;;;;;;;19.20;57.20;;;;;;5050879;28;1436;-69
2021/01/08 03:15:41;;;;;;;;;;;19.20;57.20;;;;;;5035549;28;1965;-69
2021/01/08 03:18:06;;;;;;;;;;;19.20;57.20;;;;;;5055313;28;1687;-69
2021/01/08 03:20:32;;;;;;;;;;;19.20;57.20;;;;;;5052756;28;1273;-70
2021/01/08 03:22:57;;;;;;;;;;;19.20;57.20;;;;;;5047114;28;1335;-68
2021/01/08 03:25:23;;;;;;;;;;;19.20;57.20;;;;;;5034796;28;1345;-71
2021/01/08 03:27:48;;;;;;;;;;;19.20;57.20;;;;;;5034830;28;1352;-69
2021/01/08 03:30:14;;;;;;;;;;;19.20;57.20;;;;;;5050929;28;1396;-69
2021/01/08 03:32:39;;;;;;;;;;;19.20;57.20;;;;;;5035162;28;1357;-66
2021/01/08 03:35:05;;;;;;;;;;;19.20;57.20;;;;;;5028475;28;1914;-69
2021/01/08 03:37:31;;;;;;;;;;;19.20;57.20;;;;;;5013298;28;1408;-69
2021/01/08 03:39:56;;;;;;;;;;;19.20;57.20;;;;;;5034663;28;1376;-67
2021/01/08 03:42:22;;;;;;;;;;;19.20;57.20;;;;;;5049941;28;1506;-69
2021/01/08 03:44:47;;;;;;;;;;;19.20;57.30;;;;;;5049162;28;1293;-69
2021/01/08 03:47:13;;;;;;;;;;;19.20;57.80;;;;;;5047287;28;1344;-68
2021/01/08 03:49:38;;;;;;;;;;;19.20;57.30;;;;;;5051462;28;1271;-70
2021/01/08 03:52:04;;;;;;;;;;;19.20;57.30;;;;;;5053386;28;1333;-69
2021/01/08 03:54:30;;;;;;;;;;;19.20;57.30;;;;;;5049712;28;1898;-69
2021/01/08 03:56:55;;;;;;;;;;;19.20;57.30;;;;;;5052111;28;1226;-68
2021/01/08 03:59:21;;;;;;;;;;;19.20;57.30;;;;;;5053214;28;1323;-67
2021/01/08 04:01:46;;;;;;;;;;;19.20;57.30;;;;;;5054264;28;1421;-68
2021/01/08 04:04:12;;;;;;;;;;;19.20;57.30;;;;;;5053240;28;1626;-69
2021/01/08 04:06:37;;;;;;;;;;;19.20;57.90;;;;;;5053951;28;1401;-67
2021/01/08 04:09:03;;;;;;;;;;;19.20;57.30;;;;;;5019274;28;1639;-69
2021/01/08 04:11:28;;;;;;;;;;;19.20;57.30;;;;;;5054223;28;1664;-69
2021/01/08 04:13:54;;;;;;;;;;;19.20;57.30;;;;;;5050894;28;1475;-69
2021/01/08 04:16:19;;;;;;;;;;;19.20;57.30;;;;;;5053642;28;1894;-67
2021/01/08 04:18:45;;;;;;;;;;;19.20;57.30;;;;;;5053821;28;1378;-68
2021/01/08 04:21:10;;;;;;;;;;;19.20;57.20;;;;;;5035831;28;1719;-68
2021/01/08 04:23:35;;;;;;;;;;;19.20;57.20;;;;;;5035650;28;1148;-69
2021/01/08 04:26:01;;;;;;;;;;;19.20;57.20;;;;;;5053319;28;1121;-68
2021/01/08 04:28:26;;;;;;;;;;;19.20;57.20;;;;;;5053605;28;1409;-68
2021/01/08 04:30:52;;;;;;;;;;;19.20;57.10;;;;;;5053373;28;1377;-68
2021/01/08 04:33:17;;;;;;;;;;;19.20;57.10;;;;;;5053482;28;1395;-67
2021/01/08 04:35:43;;;;;;;;;;;19.20;57.00;;;;;;5035083;28;1910;-68
2021/01/08 04:38:08;;;;;;;;;;;19.30;57.00;;;;;;5035252;28;2188;-68
2021/01/08 04:40:34;;;;;;;;;;;19.30;57.00;;;;;;5053556;28;1360;-67
2021/01/08 04:42:59;;;;;;;;;;;19.30;57.00;;;;;;5053469;28;1686;-69
2021/01/08 04:45:25;;;;;;;;;;;19.30;57.00;;;;;;5034559;28;1451;-68
2021/01/08 04:47:50;;;;;;;;;;;19.30;57.00;;;;;;5053037;28;1372;-69
2021/01/08 04:50:16;;;;;;;;;;;19.30;57.00;;;;;;5054761;28;1469;-68
2021/01/08 04:52:41;;;;;;;;;;;19.30;56.90;;;;;;5046783;28;1743;-68
2021/01/08 04:55:07;;;;;;;;;;;19.30;56.90;;;;;;5052538;28;2021;-69
2021/01/08 04:57:33;;;;;;;;;;;19.30;56.90;;;;;;5028482;28;1389;-69
2021/01/08 04:59:58;;;;;;;;;;;19.30;56.90;;;;;;5029903;28;1476;-69
2021/01/08 05:02:24;;;;;;;;;;;19.30;57.50;;;;;;5035077;28;1395;-69
2021/01/08 05:04:50;;;;;;;;;;;19.30;56.90;;;;;;5034808;28;1371;-69
2021/01/08 05:07:15;;;;;;;;;;;19.30;56.80;;;;;;5052620;28;1375;-69
2021/01/08 05:09:40;;;;;;;;;;;19.40;56.90;;;;;;5052658;28;1405;-69
2021/01/08 05:12:06;;;;;;;;;;;19.30;56.80;;;;;;5035031;28;1436;-68
2021/01/08 05:14:32;;;;;;;;;;;19.30;56.80;;;;;;5049934;28;1906;-68
2021/01/08 05:16:57;;;;;;;;;;;19.30;56.80;;;;;;5034277;28;1650;-69
2021/01/08 05:19:24;;;;;;;;;;;19.40;56.80;;;;;;5034561;28;1393;-68
2021/01/08 05:21:50;;;;;;;;;;;19.40;56.80;;;;;;5034424;28;1403;-69
2021/01/08 05:24:16;;;;;;;;;;;19.40;56.80;;;;;;5052360;28;1376;-69
2021/01/08 05:26:41;;;;;;;;;;;19.30;56.80;;;;;;5034424;28;1685;-69
2021/01/08 05:29:07;;;;;;;;;;;19.40;56.80;;;;;;5052002;28;1646;-69
2021/01/08 05:31:33;;;;;;;;;;;19.40;56.80;;;;;;5052126;28;1604;-69
2021/01/08 05:33:58;;;;;;;;;;;19.40;56.80;;;;;;5034589;28;1621;-70
2021/01/08 05:36:24;;;;;;;;;;;19.40;56.80;;;;;;5052103;28;1887;-69
2021/01/08 05:38:59;;;;;;;;;;;19.40;56.80;;;;;;5052237;28;1462;-69
2021/01/08 05:41:25;;;;;;;;;;;19.40;56.80;;;;;;5052537;28;1702;-69
2021/01/08 05:43:50;;;;;;;;;;;19.40;56.80;;;;;;5052413;28;1346;-68
2021/01/08 05:46:16;;;;;;;;;;;19.40;56.80;;;;;;5034664;28;1608;-69
2021/01/08 05:48:45;;;;;;;;;;;19.40;56.70;;;;;;5052298;28;1680;-69
2021/01/08 05:51:13;;;;;;;;;;;19.40;56.70;;;;;;5061190;28;1478;-70
2021/01/08 05:53:38;;;;;;;;;;;19.40;56.70;;;;;;5056530;28;1436;-69
2021/01/08 05:56:04;;;;;;;;;;;19.40;56.70;;;;;;5052484;28;1961;-69
2021/01/08 05:58:29;;;;;;;;;;;19.40;56.70;;;;;;5022430;28;1257;-69
2021/01/08 06:00:55;;;;;;;;;;;19.40;56.70;;;;;;5051878;28;1695;-67
2021/01/08 06:03:22;;;;;;;;;;;19.40;56.70;;;;;;5052193;28;1603;-66
2021/01/08 06:05:49;;;;;;;;;;;19.40;56.70;;;;;;5034596;28;1295;-68
2021/01/08 06:08:14;;;;;;;;;;;19.40;56.70;;;;;;5032971;28;1761;-68
2021/01/08 06:10:40;;;;;;;;;;;19.40;56.70;;;;;;5034417;28;1703;-67
2021/01/08 06:13:05;;;;;;;;;;;19.40;56.70;;;;;;5031569;28;1381;-67
2021/01/08 06:15:31;;;;;;;;;;;19.40;56.60;;;;;;5033948;28;1977;-69
2021/01/08 06:17:56;;;;;;;;;;;19.40;56.70;;;;;;5034007;28;1592;-69
2021/01/08 06:20:21;;;;;;;;;;;19.40;56.60;;;;;;5052044;28;1645;-68
2021/01/08 06:22:47;;;;;;;;;;;19.40;56.60;;;;;;5052252;28;1682;-68
2021/01/08 06:25:12;;;;;;;;;;;19.40;56.60;;;;;;5051872;28;1585;-66
2021/01/08 06:27:38;;;;;;;;;;;19.40;56.60;;;;;;5033936;28;1654;-66
2021/01/08 06:30:04;;;;;;;;;;;19.50;56.60;;;;;;5034350;28;1715;-67
2021/01/08 06:32:30;;;;;;;;;;;19.50;56.70;;;;;;5051893;28;1296;-67
2021/01/08 06:35:06;;;;;;;;;;;19.40;56.50;;;;;;5054584;28;1969;-66
2021/01/08 06:37:36;;;;;;;;;;;19.40;56.50;;;;;;5037625;28;1359;-66
2021/01/08 06:40:02;;;;;;;;;;;19.40;56.50;;;;;;5055510;28;1378;-66
2021/01/08 06:42:28;;;;;;;;;;;19.40;56.50;;;;;;5055219;28;1295;-67
2021/01/08 06:44:57;;;;;;;;;;;19.40;56.60;;;;;;5037142;28;1112;-66
2021/01/08 06:47:22;;;;;;;;;;;19.50;57.20;;;;;;5055121;28;1367;-67
2021/01/08 06:49:50;;;;;;;;;;;19.40;56.50;;;;;;5036822;28;1271;-67
2021/01/08 06:52:15;;;;;;;;;;;19.40;56.50;;;;;;5069109;28;1218;-67
2021/01/08 06:54:41;;;;;;;;;;;19.50;56.60;;;;;;5036973;28;1909;-67
2021/01/08 06:57:06;;;;;;;;;;;19.50;56.60;;;;;;5033705;28;1401;-67
2021/01/08 06:59:32;;;;;;;;;;;19.40;56.50;;;;;;5028371;28;1310;-66
2021/01/08 07:01:57;;;;;;;;;;;19.40;56.50;;;;;;5054891;28;1350;-67
2021/01/08 07:04:24;;;;;;;;;;;19.40;56.50;;;;;;5037338;28;1298;-66
2021/01/08 07:06:49;;;;;;;;;;;19.40;56.50;;;;;;5037582;28;1363;-67
2021/01/08 07:09:15;;;;;;;;;;;19.40;56.50;;;;;;5055349;28;1284;-67
2021/01/08 07:11:40;;;;;;;;;;;19.40;56.50;;;;;;5054796;28;1295;-67
2021/01/08 07:14:06;;;;;;;;;;;19.50;56.60;;;;;;5033875;28;1136;-67
2021/01/08 07:16:32;;;;;;;;;;;19.50;56.50;;;;;;5054687;28;1894;-67
2021/01/08 07:19:10;;;;;;;;;;;19.50;56.50;;;;;;5054795;28;1287;-67
2021/01/08 07:21:38;;;;;;;;;;;19.40;56.50;;;;;;5055089;28;1276;-66
2021/01/08 07:24:04;;;;;;;;;;;19.50;56.60;;;;;;5036021;28;1349;-66
2021/01/08 07:26:29;;;;;;;;;;;19.50;56.50;;;;;;5054498;28;1296;-66
2021/01/08 07:28:55;;;;;;;;;;;19.40;56.50;;;;;;5055014;28;1358;-67
2021/01/08 07:31:29;;;;;;;;;;;19.50;56.50;;;;;;5054641;28;1261;-66
2021/01/08 07:33:55;;;;;;;;;;;19.40;56.50;;;;;;5053938;28;1310;-68
2021/01/08 07:36:24;;;;;;;;;;;19.40;56.50;;;;;;5053941;28;1906;-68
2021/01/08 07:38:50;;;;;;;;;;;19.40;56.50;;;;;;5039074;28;2163;-68
2021/01/08 07:41:31;;;;;;;;;;;19.50;56.50;;;;;;5035806;28;1281;-66
2021/01/08 07:43:57;;;;;;;;;;;19.50;56.50;;;;;;5052507;28;1314;-67
2021/01/08 07:46:25;;;;;;;;;;;19.50;56.50;;;;;;5052925;28;1705;-66
2021/01/08 07:48:51;;;;;;;;;;;19.50;56.50;;;;;;5052733;28;1343;-66
2021/01/08 07:51:18;;;;;;;;;;;19.50;56.50;;;;;;5035102;28;1265;-66
2021/01/08 07:53:43;;;;;;;;;;;19.50;56.50;;;;;;5052362;28;1338;-66
2021/01/08 07:56:09;;;;;;;;;;;19.50;56.50;;;;;;5052847;28;1951;-67
2021/01/08 07:58:37;;;;;;;;;;;19.50;56.50;;;;;;5042118;28;1315;-68
2021/01/08 08:01:03;;;;;;;;;;;19.50;56.50;;;;;;5053930;28;1197;-68
2021/01/08 08:03:28;;;;;;;;;;;19.50;56.60;;;;;;5053677;28;1367;-69
2021/01/08 08:05:54;;;;;;;;;;;19.50;56.60;;;;;;5035767;28;1306;-67
2021/01/08 08:08:19;;;;;;;;;;;19.40;56.50;;;;;;5053825;28;1334;-68
2021/01/08 08:10:45;;;;;;;;;;;19.50;56.50;;;;;;5035982;28;1394;-68
2021/01/08 08:13:13;;;;;;;;;;;19.50;56.50;;;;;;5052999;28;1219;-69
2021/01/08 08:15:45;;;;;;;;;;;19.50;56.50;;;;;;5036213;28;1955;-68
2021/01/08 08:18:11;;;;;;;;;;;19.50;56.50;;;;;;5035620;28;1239;-69
2021/01/08 08:20:36;;;;;;;;;;;19.50;56.50;;;;;;5036080;28;1333;-69
2021/01/08 08:23:02;;;;;;;;;;;19.40;56.50;;;;;;5053453;28;1367;-69
2021/01/08 08:25:28;;;;;;;;;;;19.40;56.50;;;;;;5035338;28;1531;-69
2021/01/08 08:27:57;;;;;;;;;;;19.50;56.50;;;;;;5035787;28;1383;-69
2021/01/08 08:30:23;;;;;;;;;;;19.50;56.50;;;;;;5053239;28;1288;-69
2021/01/08 08:32:49;;;;;;;;;;;19.50;56.50;;;;;;5053280;28;1281;-69
2021/01/08 08:35:15;;;;;;;;;;;19.50;56.50;;;;;;5030906;28;1965;-68
2021/01/08 08:37:46;;;;;;;;;;;19.50;56.50;;;;;;5033302;28;1406;-69
2021/01/08 08:40:12;;;;;;;;;;;19.40;56.50;;;;;;5048255;28;1314;-69
2021/01/08 08:42:37;;;;;;;;;;;19.50;56.50;;;;;;5050534;28;1269;-69
2021/01/08 08:45:03;;;;;;;;;;;19.50;57.10;;;;;;5051892;28;1261;-69
2021/01/08 08:47:28;;;;;;;;;;;19.50;56.50;;;;;;5052081;28;1258;-69
2021/01/08 08:49:54;;;;;;;;;;;19.50;56.50;;;;;;5034165;28;1357;-69
2021/01/08 08:52:26;;;;;;;;;;;19.50;56.50;;;;;;5043597;28;1254;-69
2021/01/08 08:54:51;;;;;;;;;;;19.50;56.50;;;;;;5044125;28;1956;-69
2021/01/08 08:57:20;;;;;;;;;;;19.50;56.50;;;;;;5046220;28;1261;-69
2021/01/08 08:59:45;;;;;;;;;;;19.50;56.50;;;;;;5027351;28;1365;-69
2021/01/08 09:02:21;;;;;;;;;;;19.50;56.50;;;;;;5052000;28;1328;-69
2021/01/08 09:04:53;;;;;;;;;;;19.50;56.50;;;;;;5032950;28;1326;-69
2021/01/08 09:07:22;;;;;;;;;;;19.40;56.50;;;;;;5051377;28;1346;-69
2021/01/08 09:09:48;;;;;;;;;;;19.50;56.50;;;;;;5016893;28;1343;-69
2021/01/08 09:12:30;;;;;;;;;;;19.40;56.50;;;;;;5034149;28;998;-69
2021/01/08 09:14:57;;;;;;;;;;;19.50;56.50;;;;;;5030387;28;1890;-69
2021/01/08 09:17:23;;;;;;;;;;;19.50;56.50;;;;;;5033639;28;1276;-68
2021/01/08 09:20:15;;;;;;;;;;;19.50;56.60;;;;;;5033452;28;1294;-69
2021/01/08 09:22:40;;;;;;;;;;;19.40;56.50;;;;;;5048889;28;1307;-68
2021/01/08 09:25:06;;;;;;;;;;;19.40;56.50;;;;;;5029943;28;1732;-70
2021/01/08 09:27:31;;;;;;;;;;;19.50;56.50;;;;;;5027180;28;1273;-70
2021/01/08 09:30:09;;;;;;;;;;;19.40;56.50;;;;;;5045011;28;1281;-69
2021/01/08 09:32:35;;;;;;;;;;;19.40;56.50;;;;;;5051016;28;1326;-68
2021/01/08 09:35:02;;;;;;;;;;;19.40;56.50;;;;;;5031814;28;1894;-70
2021/01/08 09:37:28;;;;;;;;;;;19.40;56.50;;;;;;5032718;28;1267;-68
2021/01/08 09:39:54;;;;;;;;;;;19.50;56.50;;;;;;5032834;28;1312;-68
2021/01/08 09:42:19;;;;;;;;;;;19.40;56.50;;;;;;5032514;28;1283;-68
2021/01/08 09:44:45;;;;;;;;;;;19.40;56.50;;;;;;5031541;28;1269;-68
2021/01/08 09:47:13;;;;;;;;;;;19.40;56.50;;;;;;5050551;28;1251;-68
2021/01/08 09:49:50;;;;;;;;;;;19.40;56.50;;;;;;5033302;28;1339;-68
2021/01/08 09:52:16;;;;;;;;;;;19.50;56.50;;;;;;5047342;28;1412;-68
2021/01/08 09:54:44;;;;;;;;;;;19.50;56.50;;;;;;5049710;28;1898;-68
2021/01/08 09:57:10;;;;;;;;;;;19.40;56.50;;;;;;5046472;28;1338;-68
2021/01/08 09:59:36;;;;;;;;;;;19.40;56.50;;;;;;5024101;28;1284;-68
2021/01/08 10:02:06;;;;;;;;;;;19.40;56.50;;;;;;5050292;28;1135;-68
2021/01/08 10:04:32;;;;;;;;;;;19.40;56.50;;;;;;5031723;28;1424;-68
2021/01/08 10:06:58;;;;;;;;;;;19.50;56.50;;;;;;5031796;28;1301;-68
2021/01/08 10:09:23;;;;;;;;;;;19.40;56.30;;;;;;5054831;28;1294;-68
2021/01/08 10:11:58;;;;;;;;;;;19.50;56.30;;;;;;5050718;28;1305;-67
2021/01/08 10:14:28;;;;;;;;;;;19.60;56.30;;;;;;5051092;28;1898;-66
2021/01/08 10:16:54;;;;;;;;;;;19.70;56.10;;;;;;5024799;28;1201;-66
2021/01/08 10:19:19;;;;;;;;;;;19.80;55.80;;;;;;5050019;28;1292;-66
2021/01/08 10:21:46;;;;;;;;;;;20.00;55.60;;;;;;5055082;28;1279;-66
2021/01/08 10:24:24;;;;;;;;;;;20.10;55.40;;;;;;5053661;28;1258;-67
2021/01/08 10:26:50;;;;;;;;;;;20.20;55.20;;;;;;5051229;28;985;-67
2021/01/08 10:29:15;;;;;;;;;;;20.30;54.90;;;;;;5047603;28;1292;-67
2021/01/08 10:31:41;;;;;;;;;;;20.40;54.70;;;;;;5045337;28;1101;-66
2021/01/08 10:34:06;;;;;;;;;;;20.50;54.40;;;;;;5051843;28;1251;-66
2021/01/08 10:36:34;;;;;;;;;;;20.60;54.30;;;;;;5052933;28;1964;-66
2021/01/08 10:39:00;;;;;;;;;;;20.70;54.10;;;;;;5043448;28;1361;-66
2021/01/08 10:41:26;;;;;;;;;;;20.70;54.50;;;;;;5053778;28;1264;-67
2021/01/08 10:43:51;;;;;;;;;;;20.80;53.80;;;;;;5052030;28;956;-67
2021/01/08 10:46:19;;;;;;;;;;;20.80;53.60;;;;;;5052975;28;1270;-67
2021/01/08 10:48:45;;;;;;;;;;;20.90;53.50;;;;;;5052430;28;1270;-67
2021/01/08 10:51:10;;;;;;;;;;;20.90;53.40;;;;;;5062031;28;1239;-67
2021/01/08 10:53:36;;;;;;;;;;;21.00;53.30;;;;;;5053117;28;1222;-66
2021/01/08 10:56:03;;;;;;;;;;;21.00;53.20;;;;;;5052714;28;1961;-66
2021/01/08 10:58:29;;;;;;;;;;;21.00;53.10;;;;;;5022564;28;1279;-67
2021/01/08 11:00:54;;;;;;;;;;;21.10;53.10;;;;;;5052973;28;1359;-66
2021/01/08 11:03:20;;;;;;;;;;;21.10;53.00;;;;;;5052930;28;1303;-66
2021/01/08 11:05:46;;;;;;;;;;;21.10;53.00;;;;;;5052976;28;1261;-68
2021/01/08 11:08:12;;;;;;;;;;;21.20;53.00;;;;;;5052598;28;1258;-68
2021/01/08 11:10:37;;;;;;;;;;;21.20;52.90;;;;;;5052755;28;1307;-69
2021/01/08 11:13:03;;;;;;;;;;;21.20;52.90;;;;;;5049746;28;1247;-70
2021/01/08 11:15:29;;;;;;;;;;;21.20;52.90;;;;;;5052592;28;1898;-70
2021/01/08 11:17:54;;;;;;;;;;;21.20;52.80;;;;;;5052487;28;1049;-69
2021/01/08 11:20:20;;;;;;;;;;;21.30;52.80;;;;;;5051935;28;1470;-69
2021/01/08 11:22:45;;;;;;;;;;;21.30;52.80;;;;;;5053446;28;1227;-69
2021/01/08 11:25:11;;;;;;;;;;;21.30;52.80;;;;;;5051849;28;1263;-69
2021/01/08 11:27:37;;;;;;;;;;;21.30;52.80;;;;;;5052609;28;1053;-70
2021/01/08 11:30:03;;;;;;;;;;;21.30;52.80;;;;;;5052298;28;1299;-69
2021/01/08 11:32:28;;;;;;;;;;;21.30;52.70;;;;;;5052309;28;1074;-70
2021/01/08 11:34:54;;;;;;;;;;;21.30;52.70;;;;;;5051657;28;1918;-70
2021/01/08 11:37:19;;;;;;;;;;;21.30;52.70;;;;;;5051877;28;1369;-70
2021/01/08 11:39:46;;;;;;;;;;;21.40;52.80;;;;;;5052298;28;1275;-70
2021/01/08 11:42:12;;;;;;;;;;;21.40;52.80;;;;;;5034620;28;1404;-70
2021/01/08 11:44:37;;;;;;;;;;;21.40;52.80;;;;;;5051678;28;1052;-70
2021/01/08 11:47:03;;;;;;;;;;;21.30;52.70;;;;;;5034230;28;1396;-70
2021/01/08 11:49:28;;;;;;;;;;;21.30;52.80;;;;;;5051725;28;1283;-71
2021/01/08 11:51:57;;;;;;;;;;;21.40;52.80;;;;;;5052383;28;1190;-71
2021/01/08 11:54:23;;;;;;;;;;;21.30;52.80;;;;;;5051140;28;1918;-69
2021/01/08 11:56:48;;;;;;;;;;;21.30;52.80;;;;;;5051072;28;1304;-70
2021/01/08 11:59:14;;;;;;;;;;;21.30;52.80;;;;;;5022644;28;1314;-70
2021/01/08 12:01:39;;;;;;;;;;;21.30;52.80;;;;;;5051770;28;1308;-69
2021/01/08 12:04:05;;;;;;;;;;;21.30;52.90;;;;;;5051975;28;1026;-71
2021/01/08 12:06:31;;;;;;;;;;;21.30;52.80;;;;;;5052011;28;1055;-70
2021/01/08 12:08:57;;;;;;;;;;;21.30;52.70;;;;;;5033777;28;1316;-70
2021/01/08 12:11:23;;;;;;;;;;;21.30;52.80;;;;;;5034162;28;1318;-69
2021/01/08 12:13:48;;;;;;;;;;;21.30;52.80;;;;;;5031856;28;1195;-70
2021/01/08 12:16:14;;;;;;;;;;;21.30;52.90;;;;;;5052223;28;1882;-67
2021/01/08 12:18:39;;;;;;;;;;;21.30;52.90;;;;;;5053080;28;1427;-67
2021/01/08 12:21:05;;;;;;;;;;;21.30;52.90;;;;;;5051082;28;1278;-68
2021/01/08 12:23:31;;;;;;;;;;;21.30;52.90;;;;;;5051643;28;1358;-68
2021/01/08 12:25:56;;;;;;;;;;;21.30;53.00;;;;;;5050345;28;1298;-67
2021/01/08 12:28:22;;;;;;;;;;;21.30;53.00;;;;;;5052685;28;1318;-68
2021/01/08 12:30:47;;;;;;;;;;;21.30;53.60;;;;;;5045979;28;1319;-67
2021/01/08 12:33:13;;;;;;;;;;;21.30;53.10;;;;;;5051209;28;1280;-67
2021/01/08 12:35:38;;;;;;;;;;;21.20;53.10;;;;;;5049624;28;1971;-67
2021/01/08 12:38:04;;;;;;;;;;;21.20;53.10;;;;;;5043755;28;1089;-68
2021/01/08 12:40:29;;;;;;;;;;;21.20;53.20;;;;;;5047372;28;1374;-68
2021/01/08 12:42:55;;;;;;;;;;;21.20;53.30;;;;;;5033663;28;1166;-69
2021/01/08 12:45:20;;;;;;;;;;;21.20;53.30;;;;;;5044950;28;1787;-71
2021/01/08 12:47:46;;;;;;;;;;;21.10;53.30;;;;;;5041727;28;1757;-69
2021/01/08 12:50:12;;;;;;;;;;;21.10;53.40;;;;;;5043262;28;1748;-70
2021/01/08 12:52:37;;;;;;;;;;;21.10;53.40;;;;;;5051212;28;1243;-70
2021/01/08 12:55:03;;;;;;;;;;;21.10;53.50;;;;;;5026364;28;1961;-70
2021/01/08 12:57:29;;;;;;;;;;;21.00;53.50;;;;;;5031938;28;918;-70
2021/01/08 12:59:55;;;;;;;;;;;21.00;53.60;;;;;;5050373;28;1269;-70
2021/01/08 13:02:21;;;;;;;;;;;21.00;53.60;;;;;;5050090;28;1256;-70
2021/01/08 13:04:46;;;;;;;;;;;21.00;53.60;;;;;;5050529;28;1258;-70
2021/01/08 13:07:12;;;;;;;;;;;21.00;53.70;;;;;;5051919;28;1413;-70
2021/01/08 13:09:37;;;;;;;;;;;21.00;53.70;;;;;;5051896;28;1367;-70
2021/01/08 13:12:03;;;;;;;;;;;21.00;53.80;;;;;;5051539;28;1232;-70
2021/01/08 13:14:28;;;;;;;;;;;21.00;53.80;;;;;;5048852;28;1902;-69
2021/01/08 13:16:54;;;;;;;;;;;20.90;53.80;;;;;;5033075;28;1323;-68
2021/01/08 13:19:20;;;;;;;;;;;20.90;53.80;;;;;;5051553;28;1211;-69
2021/01/08 13:21:46;;;;;;;;;;;20.90;53.80;;;;;;5033837;28;1053;-70
2021/01/08 13:24:11;;;;;;;;;;;20.90;53.90;;;;;;5051725;28;1153;-69
2021/01/08 13:26:37;;;;;;;;;;;20.90;54.00;;;;;;5027291;28;2182;-69
2021/01/08 13:29:02;;;;;;;;;;;20.90;54.00;;;;;;5050252;28;1401;-70
2021/01/08 13:31:28;;;;;;;;;;;20.90;54.00;;;;;;5047105;28;1232;-70
2021/01/08 13:33:55;;;;;;;;;;;20.90;54.10;;;;;;5050432;28;1298;-69
2021/01/08 13:36:21;;;;;;;;;;;20.80;54.00;;;;;;5033393;28;2382;-69
2021/01/08 13:38:46;;;;;;;;;;;20.80;54.10;;;;;;5033643;28;1257;-69
2021/01/08 13:41:12;;;;;;;;;;;20.80;54.10;;;;;;5020214;28;1197;-69
2021/01/08 13:43:37;;;;;;;;;;;20.80;54.20;;;;;;5032635;28;1053;-67
2021/01/08 13:46:03;;;;;;;;;;;20.80;54.20;;;;;;5051130;28;1318;-67
2021/01/08 13:48:29;;;;;;;;;;;20.80;54.30;;;;;;5051291;28;1299;-66
2021/01/08 13:50:55;;;;;;;;;;;20.70;54.30;;;;;;5040070;28;1375;-66
2021/01/08 13:53:20;;;;;;;;;;;20.70;54.30;;;;;;5057763;28;1270;-66
2021/01/08 13:55:46;;;;;;;;;;;20.70;54.30;;;;;;5050499;28;1953;-67
2021/01/08 13:58:11;;;;;;;;;;;20.70;54.40;;;;;;5039107;28;1287;-67
2021/01/08 14:00:37;;;;;;;;;;;20.70;54.40;;;;;;5050947;28;1427;-67
2021/01/08 14:03:02;;;;;;;;;;;20.70;54.50;;;;;;5051283;28;1339;-68
2021/01/08 14:05:28;;;;;;;;;;;20.70;54.50;;;;;;5033108;28;1320;-68
2021/01/08 14:07:53;;;;;;;;;;;20.60;54.50;;;;;;5051065;28;1236;-68
2021/01/08 14:10:19;;;;;;;;;;;20.60;54.50;;;;;;5050941;28;1366;-68
2021/01/08 14:12:44;;;;;;;;;;;20.60;54.50;;;;;;5049600;28;1271;-67
2021/01/08 14:15:14;;;;;;;;;;;20.60;54.50;;;;;;5045731;28;1898;-68
2021/01/08 14:17:40;;;;;;;;;;;20.60;54.60;;;;;;5046213;28;1262;-69
2021/01/08 14:20:06;;;;;;;;;;;20.60;54.60;;;;;;5049738;28;1332;-69
2021/01/08 14:22:31;;;;;;;;;;;20.60;54.60;;;;;;5051206;28;1331;-69
2021/01/08 14:24:57;;;;;;;;;;;20.50;54.60;;;;;;5050370;28;1315;-69